Time;durP1;ratioP1;P1;durP2;ratioP2;P2;SDS_P1;SDS_P2;PMS_P1;PMS_P2;Temp;Humidity;BMP_temperature;BMP_pressure;BME280_temperature;BME280_humidity;BME280_pressure;Samples;Min_cycle;Max_cycle;Signal;HPM_P1;HPM_P2
2022/05/14 00:00:25;;;;;;;6.72;5.28;;;;;;;14.71;58.60;99180.47;5041437;28;20471;-84
2022/05/14 00:02:51;;;;;;;9.00;4.95;;;;;;;14.69;58.69;99181.81;5058858;28;20035;-84
2022/05/14 00:05:19;;;;;;;8.63;5.35;;;;;;;14.59;58.85;99185.28;5057740;28;20029;-83
2022/05/14 00:07:45;;;;;;;9.13;4.88;;;;;;;14.49;58.77;99179.91;5060634;28;20031;-84
2022/05/14 00:10:11;;;;;;;6.97;4.65;;;;;;;14.55;58.78;99168.09;5053435;28;20029;-83
2022/05/14 00:15:20;;;;;;;7.70;4.53;;;;;;;14.54;58.77;99177.22;5046341;28;20440;-84
2022/05/14 00:17:47;;;;;;;7.25;4.32;;;;;;;14.55;58.85;99173.47;5047747;28;20251;-83
2022/05/14 00:20:13;;;;;;;9.15;5.00;;;;;;;14.58;58.86;99178.31;5020255;28;20497;-83
2022/05/14 00:22:38;;;;;;;5.22;4.15;;;;;;;14.57;58.77;99170.53;5047817;28;20062;-83
2022/05/14 00:25:04;;;;;;;7.70;3.97;;;;;;;14.56;58.88;99183.16;5036021;28;20060;-83
2022/05/14 00:27:29;;;;;;;9.38;4.25;;;;;;;14.52;58.97;99184.75;5045418;28;20051;-83
2022/05/14 00:29:56;;;;;;;4.25;3.85;;;;;;;14.58;59.20;99181.00;5027408;28;20036;-83
2022/05/14 00:32:21;;;;;;;6.90;4.55;;;;;;;14.48;59.31;99183.66;5046744;28;20037;-83
2022/05/14 00:34:46;;;;;;;6.47;5.07;;;;;;;14.49;59.29;99201.38;5031394;28;20488;-83
2022/05/14 00:37:12;;;;;;;6.15;5.53;;;;;;;14.50;58.99;99180.72;5043879;28;20425;-83
2022/05/14 00:39:37;;;;;;;7.63;5.45;;;;;;;14.49;59.08;99196.00;5048094;28;20142;-83
2022/05/14 00:42:03;;;;;;;9.15;5.53;;;;;;;14.38;59.36;99189.00;5030696;28;20024;-83
2022/05/14 00:44:28;;;;;;;9.93;5.65;;;;;;;14.38;59.29;99188.19;5028645;28;20047;-83
2022/05/14 00:47:03;;;;;;;8.48;6.15;;;;;;;14.37;59.13;99187.41;5059861;28;20036;-84
2022/05/14 00:49:31;;;;;;;7.32;5.72;;;;;;;14.41;58.85;99201.09;5046925;28;20573;-84
2022/05/14 00:51:58;;;;;;;6.20;5.28;;;;;;;14.33;59.18;99188.97;5047876;28;20036;-84
2022/05/14 00:54:32;;;;;;;7.28;5.55;;;;;;;14.30;59.08;99186.03;5047387;28;20086;-83
2022/05/14 00:57:06;;;;;;;7.10;4.97;;;;;;;14.25;58.88;99190.28;5046473;28;20111;-83
2022/05/14 00:59:31;;;;;;;5.68;5.10;;;;;;;14.20;59.26;99190.25;5047897;28;20064;-84
2022/05/14 01:01:58;;;;;;;9.38;5.43;;;;;;;14.20;59.30;99192.13;5012965;28;20446;-84
2022/05/14 01:04:23;;;;;;;7.00;6.15;;;;;;;14.10;59.13;99179.50;5048115;28;20083;-84
2022/05/14 01:06:59;;;;;;;5.18;4.65;;;;;;;14.19;58.98;99195.91;5055397;28;20163;-84
2022/05/14 01:09:25;;;;;;;6.18;5.47;;;;;;;14.13;59.46;99180.84;5058044;28;20086;-83
2022/05/14 01:11:52;;;;;;;6.15;5.45;;;;;;;14.12;59.41;99189.97;5033887;28;20472;-84
2022/05/14 01:14:19;;;;;;;6.10;5.30;;;;;;;14.16;59.13;99191.03;5057121;28;20025;-84
2022/05/14 01:16:45;;;;;;;6.13;5.38;;;;;;;14.12;59.24;99196.13;5062541;28;20036;-83
2022/05/14 01:19:11;;;;;;;8.05;5.70;;;;;;;14.06;59.44;99191.00;5046588;28;20047;-84
2022/05/14 01:22:13;;;;;;;7.22;5.18;;;;;;;14.09;59.40;99188.59;5055739;28;20124;-84
2022/05/14 01:27:49;;;;;;;7.20;5.60;;;;;;;14.04;59.59;99193.16;5049815;28;20031;-83
2022/05/14 01:30:16;;;;;;;6.45;5.40;;;;;;;13.97;59.64;99192.59;5031135;28;20036;-83
2022/05/14 01:32:45;;;;;;;7.22;6.03;;;;;;;14.02;59.82;99179.19;5052509;28;20040;-83
2022/05/14 01:35:14;;;;;;;5.78;5.32;;;;;;;13.93;59.50;99192.31;5050352;28;20040;-83
2022/05/14 01:37:40;;;;;;;8.27;5.93;;;;;;;13.92;59.85;99185.31;5047634;28;20308;-84
2022/05/14 01:40:06;;;;;;;8.75;6.45;;;;;;;13.97;59.38;99190.72;5048345;28;20036;-83
2022/05/14 01:42:31;;;;;;;8.35;6.10;;;;;;;14.06;59.32;99191.84;5049917;28;20036;-83
2022/05/14 01:44:57;;;;;;;6.88;6.03;;;;;;;13.93;59.53;99191.50;5032626;28;20061;-84
2022/05/14 01:47:23;;;;;;;6.72;5.10;;;;;;;13.90;59.61;99192.00;5051577;28;20032;-84
2022/05/14 01:49:48;;;;;;;13.25;6.35;;;;;;;14.06;59.33;99197.19;5052663;28;20424;-84
2022/05/14 01:52:14;;;;;;;5.97;5.47;;;;;;;13.99;59.79;99206.53;5049968;28;20033;-84
2022/05/14 01:54:39;;;;;;;8.77;6.40;;;;;;;14.10;58.85;99198.28;5049742;28;20124;-83
2022/05/14 01:57:04;;;;;;;5.60;5.15;;;;;;;13.97;59.50;99203.31;5018560;28;20438;-84
2022/05/14 01:59:30;;;;;;;7.13;5.85;;;;;;;13.99;59.34;99195.81;5052997;28;20036;-84
2022/05/14 02:01:55;;;;;;;8.20;5.22;;;;;;;13.90;59.63;99200.06;5036138;28;20420;-84
2022/05/14 02:04:20;;;;;;;5.72;5.13;;;;;;;13.79;59.91;99195.69;5034965;28;20032;-83
2022/05/14 02:06:46;;;;;;;6.97;5.45;;;;;;;13.98;58.65;99186.13;5036670;28;20126;-84
2022/05/14 02:09:13;;;;;;;7.05;5.28;;;;;;;13.95;59.49;99192.84;5038288;28;20025;-84
2022/05/14 02:11:40;;;;;;;8.88;5.20;;;;;;;13.99;59.09;99198.50;5048946;28;20044;-83
2022/05/14 02:14:07;;;;;;;13.32;5.45;;;;;;;13.92;59.47;99196.03;5055438;28;20053;-83
2022/05/14 02:16:32;;;;;;;9.48;5.07;;;;;;;13.90;59.51;99194.69;5061130;28;20037;-83
2022/05/14 02:18:57;;;;;;;5.55;4.65;;;;;;;13.71;59.89;99182.78;5057908;28;20079;-83
2022/05/14 02:21:24;;;;;;;8.35;4.53;;;;;;;13.75;60.18;99187.38;5064338;28;20082;-83
2022/05/14 02:23:51;;;;;;;8.10;5.05;;;;;;;13.62;60.60;99187.03;5031398;28;20496;-83
2022/05/14 02:26:17;;;;;;;5.60;4.53;;;;;;;13.58;60.55;99196.66;5057252;28;20775;-84
2022/05/14 02:28:43;;;;;;;7.72;4.45;;;;;;;13.69;60.43;99193.78;5048520;28;20029;-84
2022/05/14 02:31:09;;;;;;;8.52;4.90;;;;;;;13.57;60.77;99187.81;5050091;28;20607;-83
2022/05/14 02:33:35;;;;;;;8.05;4.40;;;;;;;13.72;60.38;99195.94;5033647;28;20066;-84
2022/05/14 02:36:00;;;;;;;5.32;3.97;;;;;;;13.67;60.29;99195.94;5050667;28;20420;-84
2022/05/14 02:38:28;;;;;;;6.13;3.83;;;;;;;13.65;60.69;99189.19;5049508;28;20654;-84
2022/05/14 02:40:53;;;;;;;10.23;4.53;;;;;;;13.76;60.46;99197.03;5051305;28;20028;-83
2022/05/14 02:43:18;;;;;;;7.43;4.65;;;;;;;13.79;60.73;99195.69;5048353;28;20379;-83
2022/05/14 02:45:44;;;;;;;9.68;4.07;;;;;;;13.73;60.37;99194.06;5033183;28;20059;-84
2022/05/14 02:48:10;;;;;;;12.30;4.88;;;;;;;13.51;60.97;99189.66;5034140;28;20082;-83
2022/05/14 02:50:36;;;;;;;7.13;5.28;;;;;;;13.61;60.76;99194.25;5052336;28;20036;-83
2022/05/14 02:53:02;;;;;;;10.02;6.03;;;;;;;13.54;60.57;99191.81;5049875;28;20060;-83
2022/05/14 02:55:27;;;;;;;6.13;4.93;;;;;;;13.74;60.23;99188.44;5017587;28;20024;-84
2022/05/14 02:57:53;;;;;;;10.50;5.88;;;;;;;13.68;60.67;99196.72;5019170;28;20040;-83
2022/05/14 03:00:20;;;;;;;10.90;5.32;;;;;;;13.77;60.40;99197.84;5046753;28;20035;-83
2022/05/14 03:02:46;;;;;;;6.30;5.70;;;;;;;13.83;60.24;99202.16;5042510;28;20476;-83
2022/05/14 03:05:14;;;;;;;9.70;5.43;;;;;;;13.71;60.48;99201.56;5036368;28;20039;-83
2022/05/14 03:07:40;;;;;;;8.70;5.22;;;;;;;13.74;60.24;99204.53;5057835;28;20025;-83
2022/05/14 03:10:06;;;;;;;6.97;5.10;;;;;;;13.60;60.69;99203.38;5050317;28;20041;-83
2022/05/14 03:12:32;;;;;;;7.72;5.93;;;;;;;13.73;60.62;99204.81;5035406;28;20025;-83
2022/05/14 03:14:57;;;;;;;10.32;5.55;;;;;;;13.88;59.70;99191.47;5050707;28;20057;-83
2022/05/14 03:17:23;;;;;;;6.13;5.35;;;;;;;13.87;59.67;99205.97;5049538;28;20032;-83
2022/05/14 03:19:49;;;;;;;9.20;5.20;;;;;;;13.84;60.28;99203.78;5051282;28;20048;-83
2022/05/14 03:22:15;;;;;;;5.43;4.93;;;;;;;13.91;59.65;99201.69;5037883;28;20036;-83
2022/05/14 03:24:41;;;;;;;8.63;5.75;;;;;;;13.86;59.94;99196.28;5049160;28;21405;-83
2022/05/14 03:27:07;;;;;;;9.02;6.28;;;;;;;13.72;60.13;99203.16;5036313;28;20062;-83
2022/05/14 03:29:33;;;;;;;7.03;5.68;;;;;;;13.59;60.61;99200.94;5042900;28;20787;-83
2022/05/14 03:31:59;;;;;;;9.65;6.65;;;;;;;13.49;60.81;99193.66;5031428;28;20552;-83
2022/05/14 03:34:26;;;;;;;8.70;6.00;;;;;;;13.73;60.22;99205.63;5047219;28;20077;-83
2022/05/14 03:36:51;;;;;;;7.13;6.05;;;;;;;13.67;60.25;99213.88;5050097;28;20115;-84
2022/05/14 03:39:17;;;;;;;11.52;6.47;;;;;;;13.69;60.16;99206.38;5047816;28;20538;-83
2022/05/14 03:41:43;;;;;;;9.95;6.50;;;;;;;13.60;60.35;99199.91;5046210;28;20025;-83
2022/05/14 03:44:08;;;;;;;7.32;6.63;;;;;;;13.71;60.27;99212.31;5057991;28;20059;-83
2022/05/14 03:46:34;;;;;;;9.20;6.60;;;;;;;13.62;60.47;99211.97;5059774;28;20400;-83
2022/05/14 03:49:00;;;;;;;8.80;6.80;;;;;;;13.59;60.85;99220.53;5067734;28;20481;-83
2022/05/14 03:51:27;;;;;;;7.57;6.75;;;;;;;13.67;60.11;99211.22;5052977;28;20155;-84
2022/05/14 03:53:52;;;;;;;9.32;6.82;;;;;;;13.59;60.34;99214.34;5062884;28;20056;-83
2022/05/14 03:56:18;;;;;;;8.77;7.88;;;;;;;13.60;60.49;99221.34;5058549;28;20477;-83
2022/05/14 03:58:43;;;;;;;10.35;6.50;;;;;;;13.54;60.54;99220.53;5061563;28;20079;-83
2022/05/14 04:01:08;;;;;;;11.65;7.60;;;;;;;13.54;60.79;99226.66;5043911;28;20039;-83
2022/05/14 04:03:35;;;;;;;7.35;6.22;;;;;;;13.65;60.57;99226.75;5040595;28;20136;-83
2022/05/14 04:06:02;;;;;;;8.55;6.63;;;;;;;13.31;61.03;99235.09;5044488;28;20048;-83
2022/05/14 04:08:27;;;;;;;10.13;7.15;;;;;;;13.32;61.32;99228.66;5061947;28;20024;-83
2022/05/14 04:10:52;;;;;;;8.25;6.28;;;;;;;13.27;61.90;99233.19;5061293;28;20439;-83
2022/05/14 04:13:18;;;;;;;8.48;6.15;;;;;;;13.25;61.90;99222.72;5048466;28;20154;-83
2022/05/14 04:15:43;;;;;;;8.23;6.28;;;;;;;13.51;61.56;99239.81;5048526;28;20126;-83
2022/05/14 04:18:09;;;;;;;9.35;5.35;;;;;;;13.34;61.75;99234.59;5048015;28;20163;-83
2022/05/14 04:20:35;;;;;;;8.85;6.00;;;;;;;13.34;62.37;99237.28;5034481;28;21249;-83
2022/05/14 04:23:01;;;;;;;10.25;5.70;;;;;;;13.37;61.81;99231.38;5047819;28;20039;-83
2022/05/14 04:25:27;;;;;;;7.95;5.88;;;;;;;13.53;61.73;99240.34;5030510;28;20062;-83
2022/05/14 04:27:53;;;;;;;10.18;5.78;;;;;;;13.33;62.55;99235.66;5028038;28;20435;-83
2022/05/14 04:30:18;;;;;;;8.88;5.57;;;;;;;13.57;61.99;99244.13;5042746;28;20052;-83
2022/05/14 04:32:44;;;;;;;8.48;5.60;;;;;;;13.52;61.78;99250.25;5046039;28;20071;-83
2022/05/14 04:35:11;;;;;;;8.88;5.47;;;;;;;13.42;62.31;99249.38;5044710;28;20033;-83
2022/05/14 04:37:36;;;;;;;9.90;5.75;;;;;;;13.40;62.82;99254.19;5047631;28;20033;-83
2022/05/14 04:40:04;;;;;;;7.00;5.75;;;;;;;13.33;62.96;99257.09;5029011;28;20029;-84
2022/05/14 04:42:29;;;;;;;6.97;5.13;;;;;;;13.26;63.36;99251.13;5034463;28;21398;-84
2022/05/14 04:44:55;;;;;;;7.65;5.28;;;;;;;13.46;62.84;99261.22;5048367;28;20033;-83
2022/05/14 04:47:21;;;;;;;6.43;4.97;;;;;;;13.56;63.09;99260.47;5045666;28;20169;-83
2022/05/14 04:49:48;;;;;;;6.68;5.43;;;;;;;13.76;62.92;99266.78;5048871;28;20090;-84
2022/05/14 04:52:13;;;;;;;8.95;5.35;;;;;;;14.15;61.78;99265.41;5063136;28;20082;-83
2022/05/14 04:54:39;;;;;;;9.30;5.28;;;;;;;14.29;61.39;99257.72;5051547;28;20033;-84
2022/05/14 04:57:05;;;;;;;12.32;5.30;;;;;;;14.39;61.34;99248.91;5050239;28;20056;-83
2022/05/14 04:59:31;;;;;;;8.88;4.97;;;;;;;14.46;61.10;99258.31;5053562;28;20033;-84
2022/05/14 05:04:41;;;;;;;9.38;5.13;;;;;;;14.56;61.13;99270.97;5056529;28;20055;-83
2022/05/14 05:07:07;;;;;;;11.20;5.07;;;;;;;14.60;61.37;99270.19;5052669;28;20036;-83
2022/05/14 05:09:33;;;;;;;6.43;4.85;;;;;;;14.63;61.45;99271.53;5054986;28;20068;-83
2022/05/14 05:11:58;;;;;;;10.75;5.30;;;;;;;14.67;61.42;99272.63;5075859;28;20132;-83
2022/05/14 05:14:24;;;;;;;7.95;5.63;;;;;;;14.67;61.16;99268.06;5054027;28;20040;-84
2022/05/14 05:16:50;;;;;;;8.05;4.95;;;;;;;14.69;61.34;99276.66;5062380;28;20508;-84
2022/05/14 05:19:16;;;;;;;10.85;5.40;;;;;;;14.79;61.35;99282.06;5064835;28;20039;-84
2022/05/14 05:21:41;;;;;;;13.65;5.50;;;;;;;14.72;61.28;99275.34;5064240;28;20070;-84
2022/05/14 05:24:07;;;;;;;8.02;4.68;;;;;;;14.63;61.54;99266.19;5049125;28;20033;-84
2022/05/14 05:26:33;;;;;;;12.35;5.45;;;;;;;14.51;62.00;99258.34;5060944;28;20044;-84
2022/05/14 05:28:58;;;;;;;7.72;4.80;;;;;;;14.61;61.79;99269.09;5050295;28;20475;-84
2022/05/14 05:31:24;;;;;;;9.65;4.50;;;;;;;14.66;62.53;99271.00;5060464;28;20048;-84
2022/05/14 05:33:49;;;;;;;6.32;4.55;;;;;;;14.69;62.20;99268.63;5046207;28;20166;-84
2022/05/14 05:36:14;;;;;;;11.10;4.70;;;;;;;14.78;61.88;99269.72;5040343;28;20033;-84
2022/05/14 05:38:40;;;;;;;7.30;4.47;;;;;;;14.82;61.65;99273.47;5060889;28;20082;-84
2022/05/14 05:41:05;;;;;;;17.65;5.25;;;;;;;14.89;61.63;99275.91;5047607;28;20059;-84
2022/05/14 05:43:30;;;;;;;9.75;4.85;;;;;;;14.92;61.73;99273.50;5062494;28;20115;-84
2022/05/14 05:45:56;;;;;;;7.97;4.30;;;;;;;14.95;61.66;99272.16;5060607;28;20116;-84
2022/05/14 05:48:22;;;;;;;10.70;4.88;;;;;;;15.01;61.65;99290.72;5043857;28;20024;-84
2022/05/14 05:50:48;;;;;;;11.57;4.82;;;;;;;15.06;62.15;99291.78;5078389;28;20036;-84
2022/05/14 05:53:14;;;;;;;12.43;5.00;;;;;;;15.10;61.70;99287.50;5063059;28;20044;-84
2022/05/14 05:58:23;;;;;;;9.20;4.70;;;;;;;15.13;61.76;99298.53;5061636;28;20450;-84
2022/05/14 06:00:48;;;;;;;9.20;4.97;;;;;;;15.01;61.86;99268.41;5063485;28;20033;-84
2022/05/14 06:03:14;;;;;;;15.15;5.88;;;;;;;15.16;62.09;99281.06;5063536;28;20131;-83
2022/05/14 06:05:41;;;;;;;15.68;4.90;;;;;;;15.23;61.75;99289.66;5066181;28;20128;-83
2022/05/14 06:08:12;;;;;;;9.57;4.82;;;;;;;15.27;61.79;99286.19;5062280;28;20035;-84
2022/05/14 06:10:38;;;;;;;13.98;5.05;;;;;;;15.27;61.97;99280.78;5062488;28;20033;-84
2022/05/14 06:13:05;;;;;;;11.80;5.57;;;;;;;15.26;61.82;99281.06;5061962;28;20031;-84
2022/05/14 06:15:30;;;;;;;13.75;4.95;;;;;;;15.24;61.76;99275.97;5056897;28;20032;-84
2022/05/14 06:18:01;;;;;;;9.48;4.45;;;;;;;15.34;61.70;99277.84;5064159;28;20373;-83
2022/05/14 06:20:27;;;;;;;12.25;4.47;;;;;;;15.44;61.41;99275.19;5063195;28;20082;-84
2022/05/14 06:22:52;;;;;;;12.10;4.72;;;;;;;15.48;61.56;99279.78;5067251;28;20464;-83
2022/05/14 06:25:18;;;;;;;11.88;5.22;;;;;;;15.53;61.52;99279.75;5047819;28;20044;-84
2022/05/14 06:27:43;;;;;;;6.95;4.18;;;;;;;15.55;61.02;99276.81;5029952;28;20494;-84
2022/05/14 06:30:09;;;;;;;13.68;5.00;;;;;;;15.57;61.38;99286.22;5045739;28;20964;-83
2022/05/14 06:32:34;;;;;;;8.30;4.32;;;;;;;15.63;61.32;99284.34;5070905;28;20123;-83
2022/05/14 06:35:00;;;;;;;13.65;4.72;;;;;;;15.63;60.90;99281.66;5038187;28;20500;-84
2022/05/14 06:37:26;;;;;;;8.57;4.03;;;;;;;15.68;60.83;99290.50;5063867;28;20033;-84
2022/05/14 06:39:51;;;;;;;10.02;4.10;;;;;;;15.73;60.91;99289.69;5062950;28;20032;-83
2022/05/14 06:42:18;;;;;;;9.27;4.07;;;;;;;15.75;60.36;99284.84;5061139;28;20036;-83
2022/05/14 06:44:43;;;;;;;13.82;4.15;;;;;;;15.79;60.73;99287.81;5045412;28;20029;-83
2022/05/14 06:47:08;;;;;;;7.20;4.78;;;;;;;15.82;60.68;99290.75;5069684;28;20032;-83
2022/05/14 06:49:34;;;;;;;8.32;4.18;;;;;;;15.88;60.60;99289.69;5047328;28;20036;-84
2022/05/14 06:52:03;;;;;;;9.27;4.93;;;;;;;15.85;60.21;99292.13;5076640;28;20037;-83
2022/05/14 06:54:31;;;;;;;8.10;4.05;;;;;;;15.89;60.11;99296.69;5064001;28;20028;-83
2022/05/14 06:56:57;;;;;;;16.55;5.43;;;;;;;15.94;60.20;99287.78;5075162;28;20083;-83
2022/05/14 06:59:22;;;;;;;10.30;4.80;;;;;;;15.94;60.12;99302.06;5060529;28;20487;-83
2022/05/14 07:01:48;;;;;;;10.15;4.65;;;;;;;16.00;59.95;99297.47;5055528;28;20029;-83
2022/05/14 07:07:00;;;;;;;16.02;5.10;;;;;;;16.09;60.08;99310.13;5067140;28;20085;-83
2022/05/14 07:09:28;;;;;;;9.75;5.20;;;;;;;16.18;59.56;99304.97;5062932;28;20048;-83
2022/05/14 07:12:03;;;;;;;19.52;5.43;;;;;;;16.22;59.93;99311.44;5059859;28;20119;-83
2022/05/14 07:14:30;;;;;;;9.50;5.03;;;;;;;16.25;59.53;99318.97;5063196;28;20032;-83
2022/05/14 07:16:56;;;;;;;12.90;5.35;;;;;;;16.20;59.58;99306.31;5060186;28;20082;-83
2022/05/14 07:19:22;;;;;;;13.07;5.68;;;;;;;16.18;59.54;99300.41;5068703;28;20052;-83
2022/05/14 07:21:49;;;;;;;14.75;6.40;;;;;;;16.21;59.76;99307.09;5054090;28;20037;-83
2022/05/14 07:24:18;;;;;;;13.57;5.32;;;;;;;16.33;59.53;99307.63;5057374;28;20130;-83
2022/05/14 07:26:44;;;;;;;9.50;5.03;;;;;;;16.36;59.58;99301.66;5060040;28;20031;-83
2022/05/14 07:29:13;;;;;;;15.75;4.57;;;;;;;16.37;59.52;99308.69;5046570;28;20040;-83
2022/05/14 07:31:39;;;;;;;8.25;5.05;;;;;;;16.44;59.73;99312.72;5063471;28;20044;-83
2022/05/14 07:34:06;;;;;;;13.20;4.82;;;;;;;16.48;59.56;99308.38;5047746;28;20043;-83
2022/05/14 07:36:36;;;;;;;9.38;4.97;;;;;;;16.52;59.54;99305.16;5047218;28;20072;-84
2022/05/14 07:39:04;;;;;;;17.63;6.03;;;;;;;16.58;59.53;99306.78;5060588;28;20020;-84
2022/05/14 07:41:32;;;;;;;13.55;5.80;;;;;;;16.56;59.35;99296.25;5060965;28;20492;-85
2022/05/14 07:44:00;;;;;;;14.55;6.78;;;;;;;16.66;58.97;99298.09;5033330;28;20035;-83
2022/05/14 07:46:31;;;;;;;26.13;6.45;;;;;;;16.65;59.60;99299.16;5063740;28;20461;-84
2022/05/14 07:48:58;;;;;;;14.82;5.55;;;;;;;16.70;59.39;99302.66;5026969;28;20021;-84
2022/05/14 07:51:25;;;;;;;10.90;5.85;;;;;;;16.66;59.31;99300.78;5051820;28;20060;-84
2022/05/14 07:53:51;;;;;;;19.33;7.18;;;;;;;16.72;59.38;99299.69;5044746;28;20025;-84
2022/05/14 07:56:16;;;;;;;12.98;6.03;;;;;;;16.84;58.92;99295.56;5044422;28;20078;-84
2022/05/14 07:58:43;;;;;;;14.30;5.88;;;;;;;16.89;59.48;99297.44;5044579;28;20057;-83
2022/05/14 08:01:08;;;;;;;12.15;5.50;;;;;;;17.01;59.32;99309.50;5069499;28;20037;-84
2022/05/14 08:03:34;;;;;;;14.55;5.45;;;;;;;17.08;59.13;99310.00;5056340;28;20420;-84
2022/05/14 08:05:59;;;;;;;15.65;5.53;;;;;;;17.14;59.37;99308.09;5047030;28;20028;-84
2022/05/14 08:08:25;;;;;;;11.23;5.45;;;;;;;17.24;59.02;99306.13;5066747;28;20099;-83
2022/05/14 08:10:51;;;;;;;16.52;5.18;;;;;;;17.28;58.64;99313.66;5048915;28;20123;-84
2022/05/14 08:13:19;;;;;;;17.13;6.28;;;;;;;17.33;58.55;99317.13;5049255;28;20037;-83
2022/05/14 08:15:46;;;;;;;14.63;6.70;;;;;;;17.39;58.38;99313.28;5043032;28;20041;-84
2022/05/14 08:18:12;;;;;;;13.73;5.05;;;;;;;17.45;58.25;99311.38;5054185;28;20078;-84
2022/05/14 08:20:39;;;;;;;14.38;6.70;;;;;;;17.45;58.47;99308.69;5060063;28;20062;-84
2022/05/14 08:25:51;;;;;;;17.35;6.28;;;;;;;17.58;58.44;99318.84;5056083;28;21002;-84
2022/05/14 08:28:16;;;;;;;12.32;6.03;;;;;;;17.63;58.32;99306.09;5066248;28;20024;-84
2022/05/14 08:30:41;;;;;;;15.25;6.40;;;;;;;17.74;57.58;99307.63;5032968;28;20134;-84
2022/05/14 08:33:07;;;;;;;12.35;5.85;;;;;;;17.75;58.04;99297.66;5053625;28;20082;-84
2022/05/14 08:35:33;;;;;;;17.25;6.57;;;;;;;17.78;58.15;99297.88;5056035;28;20067;-85
2022/05/14 08:37:59;;;;;;;15.77;6.20;;;;;;;17.85;57.70;99301.06;5057597;28;20052;-84
2022/05/14 08:40:33;;;;;;;12.30;6.63;;;;;;;17.88;57.55;99302.38;5060461;28;20070;-85
2022/05/14 08:43:07;;;;;;;14.23;6.05;;;;;;;17.97;58.17;99301.47;5057302;28;20115;-85
2022/05/14 08:45:36;;;;;;;14.60;6.00;;;;;;;17.98;57.69;99297.69;5067644;28;20040;-85
2022/05/14 08:48:10;;;;;;;12.07;5.35;;;;;;;18.01;57.34;99296.31;5062594;28;20037;-84
2022/05/14 08:50:37;;;;;;;16.55;5.88;;;;;;;18.11;57.11;99311.63;5063386;28;20028;-82
2022/05/14 08:53:07;;;;;;;16.25;6.07;;;;;;;18.17;57.64;99307.78;5063570;28;20488;-82
2022/05/14 08:55:42;;;;;;;22.73;6.90;;;;;;;18.25;56.81;99312.53;5065023;28;20476;-82
2022/05/14 08:58:36;;;;;;;15.55;5.55;;;;;;;18.25;56.91;99297.13;5056747;28;20029;-82
2022/05/14 09:01:04;;;;;;;13.82;6.20;;;;;;;18.35;56.25;99302.41;5068623;28;20029;-82
2022/05/14 09:03:30;;;;;;;14.05;5.47;;;;;;;18.41;56.40;99297.78;5060713;28;20060;-82
2022/05/14 09:05:57;;;;;;;17.27;5.22;;;;;;;18.43;56.75;99293.69;5065250;28;20111;-82
2022/05/14 09:08:23;;;;;;;10.85;5.38;;;;;;;18.54;56.25;99299.81;5051937;28;20037;-82
2022/05/14 09:11:01;;;;;;;12.07;4.47;;;;;;;18.58;55.99;99290.84;5049408;28;20400;-82
2022/05/14 09:13:28;;;;;;;16.77;6.10;;;;;;;18.66;56.36;99292.88;5062629;28;20603;-82
2022/05/14 09:15:59;;;;;;;10.07;5.13;;;;;;;18.76;55.55;99281.16;5063301;28;20336;-82
2022/05/14 09:18:30;;;;;;;17.88;5.22;;;;;;;18.77;55.81;99287.34;5064529;28;20021;-82
2022/05/14 09:21:05;;;;;;;11.40;4.78;;;;;;;18.85;55.49;99290.19;5064247;28;20036;-81
2022/05/14 09:23:41;;;;;;;14.02;5.03;;;;;;;18.90;55.45;99284.72;5067384;28;20024;-82
2022/05/14 09:26:12;;;;;;;;;;;;;;;19.03;54.76;99289.41;5066304;28;20032;-81
2022/05/14 09:28:44;;;;;;;17.10;5.65;;;;;;;19.06;54.76;99286.13;5065959;28;19916;-81
2022/05/14 09:31:09;;;;;;;12.27;4.70;;;;;;;19.14;54.81;99280.03;5059907;28;20040;-81
2022/05/14 09:33:42;;;;;;;9.98;5.10;;;;;;;19.28;54.75;99288.22;5051603;28;20033;-81
2022/05/14 09:36:15;;;;;;;16.30;5.13;;;;;;;19.34;53.74;99290.59;5060728;28;20074;-81
2022/05/14 09:38:42;;;;;;;14.15;3.97;;;;;;;19.36;54.39;99279.47;5058179;28;20385;-81
2022/05/14 09:41:12;;;;;;;13.13;5.22;;;;;;;19.47;54.01;99291.75;5051569;28;20527;-81
2022/05/14 09:43:39;;;;;;;11.25;4.20;;;;;;;19.51;53.39;99281.13;5055562;28;20118;-80
2022/05/14 09:46:10;;;;;;;15.70;6.13;;;;;;;19.63;53.37;99289.59;5066757;28;20389;-80
2022/05/14 09:48:48;;;;;;;14.30;4.40;;;;;;;19.74;52.79;99285.63;5061685;28;20033;-80
2022/05/14 09:51:28;;;;;;;10.48;4.10;;;;;;;19.80;52.30;99287.13;5065956;28;20424;-80
2022/05/14 09:53:54;;;;;;;11.20;4.53;;;;;;;19.82;52.56;99277.59;5068626;28;20058;-80
2022/05/14 09:56:28;;;;;;;12.38;4.40;;;;;;;20.00;52.22;99279.44;5066308;28;20043;-80
2022/05/14 09:59:03;;;;;;;12.00;4.10;;;;;;;20.12;52.10;99289.78;5076803;28;20079;-80
2022/05/14 10:01:37;;;;;;;11.90;4.60;;;;;;;20.15;52.30;99278.34;5056706;28;20555;-81
2022/05/14 10:04:26;;;;;;;9.68;4.82;;;;;;;20.29;51.80;99292.72;5056037;28;20155;-81
2022/05/14 10:07:21;;;;;;;13.02;3.88;;;;;;;20.43;51.22;99274.56;5057605;28;20103;-82
2022/05/14 10:09:58;;;;;;;14.20;4.15;;;;;;;20.54;51.43;99278.69;5052340;28;20037;-81
2022/05/14 10:12:40;;;;;;;8.73;3.75;;;;;;;20.63;51.02;99282.28;5074663;28;20091;-81
2022/05/14 10:15:21;;;;;;;10.35;3.63;;;;;;;20.62;51.29;99277.19;5062260;28;20029;-81
2022/05/14 10:18:02;;;;;;;8.90;3.67;;;;;;;20.74;50.71;99274.75;5058716;28;20058;-81
2022/05/14 10:20:35;;;;;;;7.75;3.33;;;;;;;20.72;51.18;99285.91;5067722;28;20430;-81
2022/05/14 10:26:46;;;;;;;7.03;4.05;;;;;;;20.70;50.71;99274.56;5064138;28;20396;-81
2022/05/14 10:29:11;;;;;;;;;;;;;;;20.71;50.22;99280.75;5065534;28;20089;-81
2022/05/14 10:31:55;;;;;;;10.97;3.50;;;;;;;20.62;50.68;99280.69;5059027;28;19921;-81
2022/05/14 10:34:34;;;;;;;6.50;3.33;;;;;;;20.60;51.02;99280.19;5068476;28;20025;-81
2022/05/14 10:37:03;;;;;;;12.90;3.75;;;;;;;20.57;50.21;99283.50;5064753;28;20115;-81
2022/05/14 10:39:56;;;;;;;9.38;3.20;;;;;;;20.58;50.26;99274.25;5080555;28;20480;-81
2022/05/14 10:42:45;;;;;;;12.15;4.35;;;;;;;20.73;50.49;99281.25;5067565;28;20082;-81
2022/05/14 10:45:17;;;;;;;7.63;3.17;;;;;;;20.76;50.12;99281.47;5065793;28;20070;-81
2022/05/14 10:47:46;;;;;;;10.48;3.47;;;;;;;20.78;49.97;99273.81;5057104;28;20098;-80
2022/05/14 10:50:18;;;;;;;9.93;3.40;;;;;;;20.88;49.85;99273.59;5066065;28;20094;-81
2022/05/14 10:52:45;;;;;;;7.78;3.40;;;;;;;21.01;49.49;99282.03;5059394;28;20579;-81
2022/05/14 10:55:18;;;;;;;11.88;3.85;;;;;;;21.08;49.72;99274.31;5064375;28;20036;-81
2022/05/14 10:57:47;;;;;;;8.65;3.90;;;;;;;21.12;49.06;99273.34;5061104;28;20082;-81
2022/05/14 11:00:28;;;;;;;10.93;3.38;;;;;;;21.26;49.11;99276.03;5059976;28;20369;-81
2022/05/14 11:03:09;;;;;;;9.18;4.28;;;;;;;21.34;49.18;99280.75;5060510;28;20383;-81
2022/05/14 11:05:53;;;;;;;8.68;3.35;;;;;;;21.43;48.73;99273.44;5057376;28;20028;-81
2022/05/14 11:08:45;;;;;;;9.57;3.50;;;;;;;21.59;47.93;99270.06;5058168;28;20074;-81
2022/05/14 11:11:16;;;;;;;7.43;3.40;;;;;;;21.72;48.19;99271.09;5061332;28;20039;-82
2022/05/14 11:13:54;;;;;;;8.50;3.58;;;;;;;21.85;47.60;99270.22;5046061;28;20029;-82
2022/05/14 11:16:19;;;;;;;10.77;3.72;;;;;;;21.98;47.98;99268.53;5073791;28;20028;-82
2022/05/14 11:18:51;;;;;;;9.07;4.03;;;;;;;22.12;47.30;99274.69;5057344;28;20432;-82
2022/05/14 11:21:18;;;;;;;7.95;3.13;;;;;;;22.12;47.36;99277.41;5069122;28;20032;-82
2022/05/14 11:23:59;;;;;;;7.18;3.58;;;;;;;22.21;47.55;99265.44;5062928;28;20036;-81
2022/05/14 11:26:44;;;;;;;10.88;3.00;;;;;;;22.35;47.49;99277.00;5058915;28;20035;-81
2022/05/14 11:29:18;;;;;;;7.07;4.18;;;;;;;22.40;47.48;99278.78;5061399;28;20063;-81
2022/05/14 11:32:03;;;;;;;7.10;2.70;;;;;;;22.34;47.38;99271.91;5058196;28;20040;-81
2022/05/14 11:34:28;;;;;;;5.28;3.08;;;;;;;22.29;46.72;99269.31;5059787;28;20036;-81
2022/05/14 11:36:58;;;;;;;6.25;3.03;;;;;;;22.34;46.90;99261.78;5057083;28;20032;-82
2022/05/14 11:39:25;;;;;;;8.82;3.40;;;;;;;22.38;46.82;99270.94;5057795;28;20020;-82
2022/05/14 11:42:05;;;;;;;8.52;3.53;;;;;;;22.49;47.08;99267.94;5059253;28;20531;-81
2022/05/14 11:44:52;;;;;;;6.85;3.33;;;;;;;22.59;47.25;99273.06;5056191;28;20484;-82
2022/05/14 11:47:52;;;;;;;4.88;3.25;;;;;;;22.52;47.12;99265.38;5073927;28;20029;-81
2022/05/14 11:50:24;;;;;;;7.10;3.67;;;;;;;22.54;47.65;99278.69;5058078;28;20182;-82
2022/05/14 11:53:14;;;;;;;8.43;3.60;;;;;;;22.48;47.41;99275.28;5061698;28;20045;-82
2022/05/14 11:55:54;;;;;;;13.23;4.00;;;;;;;22.42;47.61;99282.00;5054881;28;20020;-82
2022/05/14 11:58:41;;;;;;;7.38;3.53;;;;;;;22.28;46.83;99273.94;5060091;28;20079;-82